Time;durP1;ratioP1;P1;durP2;ratioP2;P2;SDS_P1;SDS_P2;PMS_P1;PMS_P2;Temp;Humidity;BMP_temperature;BMP_pressure;BME280_temperature;BME280_humidity;BME280_pressure;Samples;Min_cycle;Max_cycle;Signal;HPM_P1;HPM_P2
2022/02/14 00:02:10;;;;;;;5.57;3.10;;;5.20;99.90;;;;;;4994225;28;20081;-79
2022/02/14 00:04:35;;;;;;;7.33;3.30;;;5.20;99.90;;;;;;4977515;28;20058;-79
2022/02/14 00:07:01;;;;;;;7.47;3.33;;;5.10;99.90;;;;;;4994251;28;20022;-79
2022/02/14 00:09:27;;;;;;;9.80;3.50;;;5.10;99.90;;;;;;4977156;28;20022;-79
2022/02/14 00:11:53;;;;;;;7.67;3.63;;;5.10;99.90;;;;;;4977016;28;20113;-79
2022/02/14 00:14:20;;;;;;;8.33;4.53;;;5.00;99.90;;;;;;4977280;28;20025;-79
2022/02/14 00:16:45;;;;;;;6.27;3.43;;;5.00;99.90;;;;;;4977179;28;20494;-79
2022/02/14 00:19:11;;;;;;;6.57;3.27;;;4.90;99.90;;;;;;4973079;28;20081;-79
2022/02/14 00:21:37;;;;;;;8.63;3.90;;;4.90;99.90;;;;;;4973720;28;20031;-79
2022/02/14 00:24:03;;;;;;;7.00;3.20;;;4.90;99.90;;;;;;4973386;28;20031;-79
2022/02/14 00:26:28;;;;;;;8.93;3.83;;;4.90;99.90;;;;;;4974914;28;20027;-79
2022/02/14 00:28:54;;;;;;;8.80;4.20;;;4.90;99.90;;;;;;4974557;28;20114;-78
2022/02/14 00:31:20;;;;;;;8.50;3.63;;;4.90;99.90;;;;;;4973757;28;20023;-80
2022/02/14 00:33:45;;;;;;;8.40;3.83;;;4.80;99.90;;;;;;4974253;28;20107;-80
2022/02/14 00:36:11;;;;;;;10.57;4.30;;;4.80;99.90;;;;;;4973378;28;20085;-79
2022/02/14 00:38:37;;;;;;;6.73;3.90;;;4.70;99.90;;;;;;4973848;28;20030;-79
2022/02/14 00:41:02;;;;;;;9.13;4.10;;;4.70;99.90;;;;;;4973469;28;20031;-79
2022/02/14 00:43:28;;;;;;;8.30;3.80;;;4.70;99.90;;;;;;4974891;28;20023;-79
2022/02/14 00:45:54;;;;;;;13.10;4.33;;;4.80;99.90;;;;;;4973241;28;20023;-79
2022/02/14 00:48:19;;;;;;;7.83;3.30;;;4.70;99.90;;;;;;4973588;28;20034;-79
2022/02/14 00:50:45;;;;;;;10.40;3.83;;;4.60;99.90;;;;;;4973688;28;20034;-79
2022/02/14 00:53:11;;;;;;;7.67;3.77;;;4.60;99.90;;;;;;4973208;28;20366;-80
2022/02/14 00:55:36;;;;;;;10.23;3.80;;;4.60;99.90;;;;;;4974962;28;20094;-79
2022/02/14 00:58:03;;;;;;;7.77;4.07;;;4.60;99.90;;;;;;4973501;28;20365;-79
2022/02/14 01:00:29;;;;;;;7.83;4.00;;;4.50;99.90;;;;;;4974944;28;20030;-79
2022/02/14 01:02:54;;;;;;;5.80;2.90;;;4.60;99.90;;;;;;4973052;28;20030;-78
2022/02/14 01:05:20;;;;;;;9.63;3.47;;;4.60;99.90;;;;;;4974625;28;20377;-78
2022/02/14 01:07:46;;;;;;;6.30;3.57;;;4.60;99.90;;;;;;4975675;28;20102;-78
2022/02/14 01:10:12;;;;;;;8.10;3.63;;;4.60;99.90;;;;;;4976461;28;20350;-78
2022/02/14 01:12:39;;;;;;;6.10;3.30;;;4.60;99.90;;;;;;4977173;28;20033;-78
2022/02/14 01:15:07;;;;;;;8.80;3.90;;;4.60;99.90;;;;;;4976824;28;20034;-78
2022/02/14 01:17:34;;;;;;;8.37;2.97;;;4.60;99.90;;;;;;4978034;28;20118;-78
2022/02/14 01:20:04;;;;;;;8.30;3.40;;;4.60;99.90;;;;;;4976235;28;20050;-78
2022/02/14 01:22:30;;;;;;;9.20;3.27;;;4.70;99.90;;;;;;4977994;28;20027;-78
2022/02/14 01:24:55;;;;;;;7.40;3.53;;;4.70;99.90;;;;;;4976652;28;20110;-79
2022/02/14 01:27:21;;;;;;;7.90;3.53;;;4.70;99.90;;;;;;4977093;28;20077;-79
2022/02/14 01:29:47;;;;;;;7.27;3.60;;;4.70;99.90;;;;;;4977074;28;20031;-79
2022/02/14 01:32:13;;;;;;;7.33;3.57;;;4.80;99.90;;;;;;4977644;28;20457;-79
2022/02/14 01:34:38;;;;;;;7.90;3.20;;;4.80;99.90;;;;;;4976941;28;20046;-79
2022/02/14 01:37:05;;;;;;;6.13;3.10;;;4.80;99.90;;;;;;4976126;28;20044;-79
2022/02/14 01:39:31;;;;;;;7.70;3.57;;;4.80;99.90;;;;;;4976726;28;20027;-79
2022/02/14 01:41:57;;;;;;;6.70;3.70;;;4.80;99.90;;;;;;4977350;28;20031;-79
2022/02/14 01:44:49;;;;;;;6.23;3.17;;;4.80;99.90;;;;;;4976882;28;20030;-79
2022/02/14 01:47:20;;;;;;;6.13;2.97;;;4.80;99.90;;;;;;4976521;28;20041;-78
2022/02/14 01:49:47;;;;;;;7.00;3.17;;;4.80;99.90;;;;;;4977900;28;20488;-79
2022/02/14 01:52:13;;;;;;;7.80;3.17;;;4.70;99.90;;;;;;4976423;28;20038;-78
2022/02/14 01:54:45;;;;;;;6.93;3.27;;;4.70;99.90;;;;;;4976472;28;20031;-78
2022/02/14 01:57:12;;;;;;;6.00;3.30;;;4.70;99.90;;;;;;4976073;28;20027;-78
2022/02/14 01:59:39;;;;;;;6.40;3.00;;;4.60;99.90;;;;;;4977561;28;20034;-79
2022/02/14 02:02:07;;;;;;;7.20;3.40;;;4.60;99.90;;;;;;4976049;28;20026;-78
2022/02/14 02:04:33;;;;;;;7.70;3.10;;;4.60;99.90;;;;;;4976699;28;20031;-78
2022/02/14 02:06:59;;;;;;;4.57;2.73;;;4.60;99.90;;;;;;4976143;28;20054;-80
2022/02/14 02:09:25;;;;;;;7.13;3.43;;;4.60;99.90;;;;;;4976552;28;20037;-80
2022/02/14 02:14:36;;;;;;;5.07;2.73;;;4.50;99.90;;;;;;4977685;28;20038;-80
2022/02/14 02:17:02;;;;;;;4.73;3.03;;;4.40;99.90;;;;;;4976882;28;20031;-80
2022/02/14 02:19:28;;;;;;;7.73;3.33;;;4.30;99.90;;;;;;4975174;28;20110;-80
2022/02/14 02:21:54;;;;;;;5.70;2.70;;;4.30;99.90;;;;;;4976092;28;20031;-80
2022/02/14 02:24:22;;;;;;;4.73;3.00;;;4.30;99.90;;;;;;4975722;28;20029;-80
2022/02/14 02:27:04;;;;;;;6.00;2.60;;;4.30;99.90;;;;;;4976563;28;20058;-80
2022/02/14 02:29:35;;;;;;;7.07;2.87;;;4.20;99.90;;;;;;4976307;28;20027;-80
2022/02/14 02:32:01;;;;;;;4.73;2.80;;;4.20;99.90;;;;;;4976669;28;20028;-80
2022/02/14 02:34:27;;;;;;;6.93;3.03;;;4.20;99.90;;;;;;4976291;28;20387;-80
2022/02/14 02:36:58;;;;;;;5.03;2.70;;;4.20;99.90;;;;;;4976143;28;20034;-80
2022/02/14 02:39:24;;;;;;;7.47;2.65;;;4.20;99.90;;;;;;4976878;28;20031;-80
2022/02/14 02:41:50;;;;;;;4.70;2.53;;;4.10;99.90;;;;;;4976931;28;20037;-80
2022/02/14 02:44:16;;;;;;;7.47;2.63;;;4.00;99.90;;;;;;4975307;28;20034;-80
2022/02/14 02:46:43;;;;;;;5.83;3.03;;;4.00;99.90;;;;;;4975899;28;20026;-80
2022/02/14 02:49:16;;;;;;;7.20;2.63;;;4.00;99.90;;;;;;4974946;28;20030;-78
2022/02/14 02:51:45;;;;;;;5.07;2.27;;;4.00;99.90;;;;;;4976577;28;20039;-79
2022/02/14 02:54:11;;;;;;;6.37;3.07;;;4.00;99.90;;;;;;4974918;28;20086;-78
2022/02/14 02:56:39;;;;;;;6.77;3.30;;;4.00;99.90;;;;;;4975417;28;20099;-78
2022/02/14 02:59:06;;;;;;;5.83;2.70;;;4.00;99.90;;;;;;4974834;28;20043;-79
2022/02/14 03:01:32;;;;;;;5.70;2.73;;;4.00;99.90;;;;;;4975645;28;20022;-79
2022/02/14 03:04:00;;;;;;;6.93;2.23;;;4.00;99.90;;;;;;4975213;28;20023;-79
2022/02/14 03:06:25;;;;;;;5.30;2.67;;;4.00;99.90;;;;;;4975206;28;20027;-79
2022/02/14 03:08:51;;;;;;;4.70;2.70;;;3.90;99.90;;;;;;4975300;28;20026;-79
2022/02/14 03:11:18;;;;;;;6.53;3.10;;;3.90;99.90;;;;;;4975950;28;20034;-79
2022/02/14 03:13:44;;;;;;;8.23;3.13;;;3.80;99.90;;;;;;4975271;28;20483;-79
2022/02/14 03:16:10;;;;;;;5.13;2.57;;;3.90;99.90;;;;;;4975655;28;20030;-79
2022/02/14 03:18:36;;;;;;;7.93;2.50;;;3.80;99.90;;;;;;4978414;28;20046;-78
2022/02/14 03:21:02;;;;;;;4.33;2.40;;;3.80;99.90;;;;;;4994579;28;20117;-78
2022/02/14 03:23:28;;;;;;;7.47;2.80;;;3.80;99.90;;;;;;4977785;28;20502;-78
2022/02/14 03:25:54;;;;;;;5.83;2.63;;;3.80;99.90;;;;;;4994884;28;20041;-79
2022/02/14 03:28:19;;;;;;;6.53;2.60;;;3.70;99.90;;;;;;4977421;28;20119;-79
2022/02/14 03:30:45;;;;;;;6.63;2.43;;;3.70;99.90;;;;;;4977035;28;20098;-78
2022/02/14 03:33:11;;;;;;;7.27;2.70;;;3.60;99.90;;;;;;4977319;28;20450;-78
2022/02/14 03:35:37;;;;;;;5.20;2.40;;;3.50;99.90;;;;;;4977791;28;20057;-79
2022/02/14 03:38:06;;;;;;;7.67;3.50;;;3.50;99.90;;;;;;4977102;28;20034;-78
2022/02/14 03:40:32;;;;;;;9.10;4.00;;;3.50;99.90;;;;;;4995002;28;20118;-79
2022/02/14 03:42:58;;;;;;;8.00;3.83;;;3.50;99.90;;;;;;4994809;28;20066;-79
2022/02/14 03:45:24;;;;;;;9.30;3.80;;;3.40;99.90;;;;;;4977019;28;20460;-78
2022/02/14 03:47:49;;;;;;;8.97;3.50;;;3.40;99.90;;;;;;4977431;28;20036;-79
2022/02/14 03:50:16;;;;;;;12.90;4.50;;;3.40;99.90;;;;;;4976996;28;20158;-79
2022/02/14 03:52:42;;;;;;;19.87;6.67;;;3.50;99.90;;;;;;4977451;28;20478;-78
2022/02/14 03:55:08;;;;;;;20.60;7.70;;;3.50;99.90;;;;;;4976953;28;20030;-79
2022/02/14 03:57:34;;;;;;;16.77;6.50;;;3.50;99.90;;;;;;4977282;28;20454;-78
2022/02/14 04:00:00;;;;;;;13.57;4.60;;;3.70;99.90;;;;;;4977436;28;20038;-78
2022/02/14 04:02:25;;;;;;;9.77;3.57;;;3.70;99.90;;;;;;4976881;28;20142;-78
2022/02/14 04:04:53;;;;;;;7.30;3.30;;;3.70;99.90;;;;;;4994792;28;20029;-78
2022/02/14 04:07:19;;;;;;;8.23;2.90;;;3.80;99.90;;;;;;4994140;28;20027;-79
2022/02/14 04:09:45;;;;;;;6.87;2.97;;;3.80;99.90;;;;;;4977354;28;20027;-78
2022/02/14 04:12:10;;;;;;;6.10;2.90;;;3.80;99.90;;;;;;4976773;28;20023;-78
2022/02/14 04:14:36;;;;;;;6.60;2.80;;;3.90;99.90;;;;;;4977294;28;20463;-78
2022/02/14 04:17:01;;;;;;;5.73;2.70;;;3.90;99.90;;;;;;4977514;28;20098;-78
2022/02/14 04:19:27;;;;;;;6.20;2.90;;;4.00;99.90;;;;;;4976323;28;20082;-78
2022/02/14 04:21:54;;;;;;;7.00;2.70;;;4.10;99.90;;;;;;4976931;28;20073;-78
2022/02/14 04:24:19;;;;;;;6.80;2.93;;;4.10;99.90;;;;;;4976845;28;20034;-78
2022/02/14 04:26:45;;;;;;;12.03;4.10;;;4.10;99.90;;;;;;4977195;28;20133;-78
2022/02/14 04:29:11;;;;;;;6.73;3.13;;;4.20;99.90;;;;;;4976764;28;20034;-79
2022/02/14 04:31:36;;;;;;;8.57;3.40;;;4.20;99.90;;;;;;4977270;28;20077;-78
2022/02/14 04:34:02;;;;;;;5.77;2.63;;;4.10;99.90;;;;;;4976937;28;20467;-79
2022/02/14 04:36:28;;;;;;;6.03;2.50;;;4.10;99.90;;;;;;4976427;28;20122;-78
2022/02/14 04:38:53;;;;;;;7.80;2.60;;;4.00;99.90;;;;;;4994246;28;20038;-78
2022/02/14 04:41:19;;;;;;;8.80;3.03;;;4.00;99.90;;;;;;4976783;28;20434;-79
2022/02/14 04:43:44;;;;;;;4.63;2.73;;;4.00;99.90;;;;;;4983389;28;20034;-79
2022/02/14 04:46:10;;;;;;;6.90;2.80;;;4.00;99.90;;;;;;4982729;28;20026;-79
2022/02/14 04:48:36;;;;;;;7.07;2.83;;;4.10;99.90;;;;;;4982983;28;20124;-78
2022/02/14 04:51:01;;;;;;;6.87;3.07;;;4.10;99.90;;;;;;4983274;28;20038;-79
2022/02/14 04:53:27;;;;;;;7.40;3.10;;;4.10;99.90;;;;;;4982659;28;20065;-78
2022/02/14 04:55:53;;;;;;;6.53;2.80;;;4.10;99.90;;;;;;4983052;28;20026;-78
2022/02/14 04:58:18;;;;;;;6.40;3.07;;;4.20;99.90;;;;;;4982569;28;20054;-78
2022/02/14 05:00:44;;;;;;;4.83;2.77;;;4.10;99.90;;;;;;4983021;28;20120;-78
2022/02/14 05:03:10;;;;;;;4.60;2.60;;;4.00;99.90;;;;;;4982806;28;20154;-78
2022/02/14 05:05:35;;;;;;;6.37;2.67;;;4.00;99.90;;;;;;4983357;28;20030;-79
2022/02/14 05:08:01;;;;;;;7.93;2.77;;;3.90;99.90;;;;;;5000639;28;20034;-79
2022/02/14 05:10:26;;;;;;;4.73;2.70;;;3.90;99.90;;;;;;4982713;28;20491;-79
2022/02/14 05:12:52;;;;;;;5.70;3.00;;;3.80;99.90;;;;;;4983182;28;20022;-78
2022/02/14 05:15:18;;;;;;;3.20;2.27;;;3.70;99.90;;;;;;5000006;28;20475;-79
2022/02/14 05:17:44;;;;;;;5.93;2.67;;;3.60;99.90;;;;;;4983063;28;20042;-78
2022/02/14 05:20:10;;;;;;;5.67;2.60;;;3.60;99.90;;;;;;4982462;28;20061;-78
2022/02/14 05:22:35;;;;;;;3.87;2.67;;;3.50;99.90;;;;;;5000283;28;20034;-79
2022/02/14 05:25:01;;;;;;;6.37;2.80;;;3.50;99.90;;;;;;5000391;28;20053;-79
2022/02/14 05:27:27;;;;;;;4.10;2.50;;;3.40;99.90;;;;;;4982637;28;20758;-79
2022/02/14 05:29:52;;;;;;;5.40;2.33;;;3.40;99.90;;;;;;4983140;28;20027;-79
2022/02/14 05:32:18;;;;;;;4.57;3.20;;;3.30;99.90;;;;;;4982664;28;20026;-79
2022/02/14 05:34:44;;;;;;;5.37;2.47;;;3.20;99.90;;;;;;4982759;28;20027;-79
2022/02/14 05:37:10;;;;;;;4.97;3.07;;;3.20;99.90;;;;;;4982484;28;20030;-79
2022/02/14 05:39:36;;;;;;;5.97;2.77;;;3.20;99.90;;;;;;5000216;28;20472;-79
2022/02/14 05:42:02;;;;;;;5.30;2.53;;;3.10;99.90;;;;;;5000286;28;20102;-79
2022/02/14 05:44:28;;;;;;;6.27;2.60;;;3.10;99.90;;;;;;4982261;28;20453;-79
2022/02/14 05:46:53;;;;;;;4.43;2.17;;;3.00;99.90;;;;;;4982764;28;20026;-79
2022/02/14 05:49:19;;;;;;;5.87;2.53;;;3.10;99.90;;;;;;4999933;28;20037;-79
2022/02/14 05:51:45;;;;;;;7.40;2.30;;;3.10;99.90;;;;;;4982852;28;20034;-79
2022/02/14 05:54:10;;;;;;;5.40;2.50;;;3.10;99.90;;;;;;4996691;28;20082;-78
2022/02/14 05:56:36;;;;;;;3.80;2.30;;;3.10;99.90;;;;;;4980021;28;20440;-79
2022/02/14 05:59:01;;;;;;;4.50;2.90;;;3.10;99.90;;;;;;4996732;28;20062;-79
2022/02/14 06:01:27;;;;;;;6.43;2.40;;;3.00;99.90;;;;;;4979001;28;20036;-79
2022/02/14 06:03:54;;;;;;;5.43;2.30;;;3.00;99.90;;;;;;4979807;28;20434;-79
2022/02/14 06:06:19;;;;;;;5.80;2.30;;;2.90;99.90;;;;;;4979055;28;20070;-79
2022/02/14 06:08:45;;;;;;;4.57;2.13;;;2.90;99.90;;;;;;4996831;28;20508;-79
2022/02/14 06:11:11;;;;;;;8.67;2.60;;;2.80;99.90;;;;;;4978948;28;20026;-78
2022/02/14 06:13:36;;;;;;;5.40;2.30;;;2.70;99.90;;;;;;4979379;28;20041;-79
2022/02/14 06:16:02;;;;;;;9.13;3.23;;;2.70;99.90;;;;;;4979519;28;20034;-79
2022/02/14 06:18:28;;;;;;;8.00;2.80;;;2.70;99.90;;;;;;4978692;28;20038;-79
2022/02/14 06:20:54;;;;;;;7.10;2.87;;;2.70;99.90;;;;;;4997023;28;20030;-79
2022/02/14 06:23:19;;;;;;;5.07;2.67;;;2.80;99.90;;;;;;4978778;28;20030;-79
2022/02/14 06:25:45;;;;;;;5.60;2.80;;;2.90;99.90;;;;;;4979253;28;20030;-79
2022/02/14 06:28:11;;;;;;;9.77;3.13;;;3.00;99.90;;;;;;4996024;28;20521;-79
2022/02/14 06:30:36;;;;;;;7.57;3.00;;;3.10;99.90;;;;;;4996543;28;20033;-79
2022/02/14 06:33:02;;;;;;;7.03;3.47;;;3.10;99.90;;;;;;4996475;28;20073;-78
2022/02/14 06:35:28;;;;;;;7.37;3.30;;;3.10;99.90;;;;;;4978571;28;20022;-79
2022/02/14 06:37:54;;;;;;;10.70;3.20;;;3.10;99.90;;;;;;4979021;28;20030;-78
2022/02/14 06:40:20;;;;;;;7.37;2.73;;;3.20;99.90;;;;;;4978740;28;20395;-79
2022/02/14 06:42:47;;;;;;;7.73;3.30;;;3.20;99.90;;;;;;4979050;28;20125;-79
2022/02/14 06:45:15;;;;;;;5.37;2.67;;;3.20;99.90;;;;;;4995782;28;20037;-79
2022/02/14 06:47:41;;;;;;;5.97;3.47;;;3.30;99.90;;;;;;4995999;28;20069;-78
2022/02/14 06:50:07;;;;;;;11.47;3.97;;;3.40;99.90;;;;;;4978854;28;20026;-78
2022/02/14 06:52:33;;;;;;;7.17;2.97;;;3.40;99.90;;;;;;4978321;28;20042;-79
2022/02/14 06:54:58;;;;;;;8.50;3.27;;;3.50;99.90;;;;;;4978700;28;20022;-78
2022/02/14 06:57:24;;;;;;;9.83;3.77;;;3.60;99.90;;;;;;4978035;28;20023;-78
2022/02/14 06:59:50;;;;;;;7.50;3.40;;;3.70;99.90;;;;;;4978551;28;20085;-79
2022/02/14 07:02:15;;;;;;;8.00;3.17;;;3.80;99.90;;;;;;4995598;28;20121;-80
2022/02/14 07:04:41;;;;;;;8.23;3.63;;;3.90;99.90;;;;;;4978732;28;20431;-78
2022/02/14 07:07:07;;;;;;;8.30;3.40;;;3.90;99.90;;;;;;4978401;28;20026;-79
2022/02/14 07:09:32;;;;;;;7.47;3.60;;;4.00;99.90;;;;;;4977747;28;20026;-79
2022/02/14 07:11:58;;;;;;;7.87;4.27;;;4.00;99.90;;;;;;4978517;28;20053;-79
2022/02/14 07:14:24;;;;;;;8.47;3.20;;;4.10;99.90;;;;;;4977813;28;20026;-78
2022/02/14 07:16:50;;;;;;;5.77;3.43;;;4.10;99.90;;;;;;4977919;28;20026;-79
2022/02/14 07:19:16;;;;;;;7.87;2.97;;;4.20;99.90;;;;;;4977104;28;20054;-78
2022/02/14 07:21:42;;;;;;;5.57;3.07;;;4.20;99.90;;;;;;4995259;28;20112;-76
2022/02/14 07:24:08;;;;;;;7.90;3.30;;;4.30;99.90;;;;;;4977940;28;20038;-79
2022/02/14 07:26:34;;;;;;;8.10;3.33;;;4.40;99.90;;;;;;4977520;28;20118;-78
2022/02/14 07:29:00;;;;;;;8.40;3.90;;;4.60;99.90;;;;;;4978068;28;20057;-78
2022/02/14 07:31:25;;;;;;;9.37;4.13;;;4.70;99.90;;;;;;4977496;28;20066;-78
2022/02/14 07:33:51;;;;;;;8.57;3.73;;;4.80;99.90;;;;;;4977970;28;20033;-79
2022/02/14 07:36:17;;;;;;;9.23;3.97;;;4.90;99.90;;;;;;4994738;28;20026;-79
2022/02/14 07:38:42;;;;;;;7.67;3.20;;;5.00;99.90;;;;;;4978013;28;20034;-79
2022/02/14 07:41:08;;;;;;;11.03;4.00;;;5.00;99.90;;;;;;4977960;28;20081;-78
2022/02/14 07:43:33;;;;;;;9.93;3.87;;;5.10;99.90;;;;;;4994680;28;20034;-79
2022/02/14 07:46:00;;;;;;;7.47;3.80;;;5.20;99.90;;;;;;4995328;28;20022;-78
2022/02/14 07:48:26;;;;;;;7.00;3.60;;;5.20;99.90;;;;;;4995211;28;20034;-79
2022/02/14 07:50:51;;;;;;;7.77;4.37;;;5.20;99.90;;;;;;4978109;28;20038;-79
2022/02/14 07:53:18;;;;;;;6.73;3.53;;;5.30;99.90;;;;;;4977068;28;20026;-78
2022/02/14 07:55:44;;;;;;;8.23;3.50;;;5.30;99.90;;;;;;4977461;28;20139;-78
2022/02/14 07:58:10;;;;;;;9.80;4.13;;;5.30;99.90;;;;;;4977444;28;20177;-79
2022/02/14 08:00:36;;;;;;;8.20;4.17;;;5.40;99.90;;;;;;4994353;28;20022;-79
2022/02/14 08:03:01;;;;;;;9.63;4.30;;;5.40;99.90;;;;;;4994564;28;20117;-79
2022/02/14 08:05:27;;;;;;;7.87;4.17;;;5.40;99.90;;;;;;4976816;28;20511;-78
2022/02/14 08:07:53;;;;;;;7.87;4.20;;;5.50;99.90;;;;;;4977154;28;20026;-77
2022/02/14 08:10:18;;;;;;;9.53;4.27;;;5.50;99.90;;;;;;4976533;28;20379;-78
2022/02/14 08:12:44;;;;;;;10.70;4.40;;;5.60;99.90;;;;;;4976802;28;20076;-77
2022/02/14 08:15:10;;;;;;;9.93;4.37;;;5.50;99.90;;;;;;4976959;28;20065;-76
2022/02/14 08:17:36;;;;;;;8.07;3.83;;;5.60;99.90;;;;;;4976058;28;20065;-79
2022/02/14 08:20:03;;;;;;;10.90;4.17;;;5.60;99.90;;;;;;4976770;28;20439;-79
2022/02/14 08:22:29;;;;;;;9.97;4.73;;;5.60;99.90;;;;;;4993981;28;20105;-79
2022/02/14 08:24:55;;;;;;;9.13;4.77;;;5.60;99.90;;;;;;4977154;28;20058;-78
2022/02/14 08:27:21;;;;;;;11.67;4.83;;;5.70;99.90;;;;;;4976763;28;20027;-80
2022/02/14 08:29:47;;;;;;;9.70;4.10;;;5.60;99.90;;;;;;4979626;28;20113;-80
2022/02/14 08:32:16;;;;;;;11.93;4.33;;;5.60;99.90;;;;;;4976622;28;20064;-80
2022/02/14 08:34:42;;;;;;;11.07;5.00;;;5.70;99.90;;;;;;4975974;28;20037;-80
2022/02/14 08:37:12;;;;;;;9.13;4.27;;;5.60;99.90;;;;;;4976177;28;20073;-80
2022/02/14 08:39:38;;;;;;;8.57;4.20;;;5.60;99.90;;;;;;4975731;28;20437;-80
2022/02/14 08:42:04;;;;;;;7.93;4.30;;;5.60;99.90;;;;;;4976523;28;20022;-81
2022/02/14 08:44:30;;;;;;;10.87;3.87;;;5.50;99.90;;;;;;4993255;28;20091;-79
2022/02/14 08:46:56;;;;;;;6.43;4.07;;;5.60;99.90;;;;;;4976382;28;20031;-79
2022/02/14 08:49:24;;;;;;;10.87;4.57;;;5.60;99.90;;;;;;4993193;28;20018;-80
2022/02/14 08:51:51;;;;;;;10.60;4.33;;;5.70;99.90;;;;;;4976191;28;20489;-79
2022/02/14 08:54:16;;;;;;;9.20;4.37;;;5.60;99.90;;;;;;4993520;28;20030;-78
2022/02/14 08:56:42;;;;;;;10.27;4.13;;;5.70;99.90;;;;;;4973192;28;20085;-78
2022/02/14 08:59:08;;;;;;;11.27;4.37;;;5.80;99.90;;;;;;4993645;28;20054;-79
2022/02/14 09:01:34;;;;;;;8.70;4.03;;;5.90;99.90;;;;;;4975816;28;20026;-80
2022/02/14 09:03:59;;;;;;;9.30;3.77;;;6.00;99.90;;;;;;4976235;28;20018;-79
2022/02/14 09:06:27;;;;;;;9.43;4.43;;;6.10;99.90;;;;;;4975980;28;20025;-79
2022/02/14 09:08:53;;;;;;;11.43;5.07;;;6.10;99.90;;;;;;4976265;28;20121;-79
2022/02/14 09:11:19;;;;;;;6.80;4.03;;;6.20;99.90;;;;;;4976416;28;20026;-79
2022/02/14 09:13:45;;;;;;;9.33;4.40;;;6.30;99.90;;;;;;4976446;28;20027;-79
2022/02/14 09:16:11;;;;;;;7.53;4.17;;;6.40;99.90;;;;;;4976647;28;20395;-79
2022/02/14 09:18:38;;;;;;;8.80;4.00;;;6.50;99.90;;;;;;4975406;28;20101;-79
2022/02/14 09:21:05;;;;;;;11.23;4.20;;;6.50;99.90;;;;;;4976399;28;20124;-80
2022/02/14 09:23:31;;;;;;;7.97;4.50;;;6.60;99.90;;;;;;4975883;28;20072;-80
2022/02/14 09:25:58;;;;;;;7.50;4.20;;;6.60;99.90;;;;;;4976323;28;20030;-77
2022/02/14 09:28:24;;;;;;;9.43;4.20;;;6.60;99.90;;;;;;4971161;28;20085;-80
2022/02/14 09:30:50;;;;;;;8.40;4.03;;;6.60;99.90;;;;;;4979849;28;20030;-79
2022/02/14 09:33:16;;;;;;;7.27;4.33;;;6.60;99.90;;;;;;4979165;28;20168;-79
2022/02/14 09:35:42;;;;;;;8.47;4.43;;;6.70;99.90;;;;;;4978873;28;20034;-78
2022/02/14 09:38:08;;;;;;;10.67;4.30;;;6.70;99.90;;;;;;4979123;28;20030;-78
2022/02/14 09:40:35;;;;;;;9.03;4.30;;;6.80;99.90;;;;;;4978751;28;20050;-78
2022/02/14 09:43:02;;;;;;;9.07;4.13;;;6.90;99.90;;;;;;4979077;28;20037;-79
2022/02/14 09:45:30;;;;;;;10.83;4.47;;;7.00;99.90;;;;;;4996200;28;20037;-78
2022/02/14 09:48:01;;;;;;;10.07;3.97;;;7.00;99.90;;;;;;4978770;28;20492;-78
2022/02/14 09:50:30;;;;;;;10.23;4.47;;;7.10;99.90;;;;;;4978826;28;20041;-78
2022/02/14 09:52:57;;;;;;;12.57;4.47;;;7.10;99.90;;;;;;4979293;28;20277;-80
2022/02/14 09:55:23;;;;;;;11.03;4.20;;;7.20;99.90;;;;;;4996262;28;20061;-82
2022/02/14 09:57:49;;;;;;;7.93;3.97;;;7.30;99.90;;;;;;4979426;28;20062;-82
2022/02/14 10:00:15;;;;;;;9.53;4.20;;;7.40;99.90;;;;;;4979418;28;20042;-82
2022/02/14 10:02:41;;;;;;;7.32;3.83;;;7.50;99.90;;;;;;4978985;28;20026;-81
2022/02/14 10:05:13;;;;;;;12.30;3.70;;;7.60;99.90;;;;;;4979139;28;20039;-81
2022/02/14 10:07:40;;;;;;;12.30;4.32;;;7.70;99.90;;;;;;4978925;28;20042;-84
2022/02/14 10:10:15;;;;;;;10.20;3.97;;;7.80;99.90;;;;;;4979209;28;20085;-83
2022/02/14 10:12:59;;;;;;;8.93;4.50;;;7.90;99.90;;;;;;4978267;28;20030;-83
2022/02/14 10:15:26;;;;;;;10.93;4.90;;;7.90;99.90;;;;;;4978193;28;20030;-82
2022/02/14 10:17:59;;;;;;;11.57;5.40;;;8.00;99.90;;;;;;4979133;28;20045;-81
2022/02/14 10:20:26;;;;;;;10.47;4.20;;;8.10;99.90;;;;;;4978081;28;20055;-80
2022/02/14 10:23:02;;;;;;;11.60;4.13;;;8.30;99.90;;;;;;4979216;28;20431;-82
2022/02/14 10:25:48;;;;;;;13.15;4.00;;;8.40;99.90;;;;;;4977976;28;20030;-79
2022/02/14 10:28:28;;;;;;;8.02;3.13;;;8.70;99.90;;;;;;4977317;28;20041;-81
2022/02/14 10:31:03;;;;;;;9.55;2.60;;;8.90;99.90;;;;;;4976865;28;20352;-80
2022/02/14 10:33:56;;;;;;;9.27;3.17;;;9.10;99.90;;;;;;4994972;28;20037;-81
2022/02/14 10:36:33;;;;;;;7.82;3.45;;;9.20;99.90;;;;;;4985491;28;20030;-80
2022/02/14 10:39:20;;;;;;;8.30;2.78;;;9.30;99.90;;;;;;4975601;28;20026;-81
2022/02/14 10:41:49;;;;;;;6.25;3.35;;;9.40;99.90;;;;;;4977367;28;20069;-81
2022/02/14 10:47:20;;;;;;;8.27;2.92;;;9.60;99.90;;;;;;4995579;28;20498;-84
2022/02/14 10:50:09;;;;;;;6.20;2.70;;;9.80;99.90;;;;;;4977448;28;20129;-83
2022/02/14 10:52:53;;;;;;;5.60;2.03;;;10.00;99.90;;;;;;4958853;28;20091;-85
2022/02/14 10:55:20;;;;;;;5.18;2.45;;;10.20;99.90;;;;;;4973400;28;20069;-88
2022/02/14 10:57:49;;;;;;;6.50;2.05;;;10.40;99.90;;;;;;4994546;28;20038;-84
2022/02/14 11:00:18;;;;;;;7.05;1.88;;;10.50;99.90;;;;;;4978407;28;20058;-84
2022/02/14 11:02:47;;;;;;;5.28;1.70;;;10.60;99.90;;;;;;4994392;28;20177;-85
2022/02/14 11:05:14;;;;;;;6.07;1.95;;;10.80;99.90;;;;;;4995350;28;20109;-89
2022/02/14 11:07:41;;;;;;;5.63;1.70;;;11.00;99.90;;;;;;4977846;28;20124;-91
2022/02/14 11:10:09;;;;;;;5.80;1.38;;;11.30;99.30;;;;;;4995539;28;20034;-88
2022/02/14 11:12:38;;;;;;;3.17;1.30;;;11.60;98.60;;;;;;4977164;28;20030;-87
2022/02/14 11:15:07;;;;;;;3.88;1.00;;;11.90;98.00;;;;;;4978400;28;20027;-89
2022/02/14 11:17:34;;;;;;;3.42;1.00;;;12.20;98.00;;;;;;4977960;28;20049;-87
2022/02/14 11:20:06;;;;;;;2.90;0.90;;;12.50;97.60;;;;;;4977671;28;20046;-86
2022/02/14 11:22:44;;;;;;;1.83;0.60;;;12.70;95.20;;;;;;4977446;28;20022;-89
2022/02/14 11:25:09;;;;;;;3.28;0.73;;;12.80;94.90;;;;;;4977943;28;20038;-89
2022/02/14 11:28:37;;;;;;;2.75;0.70;;;12.80;95.30;;;;;;4976838;28;20030;-89
2022/02/14 11:31:06;;;;;;;1.65;0.82;;;12.80;94.70;;;;;;4928365;29;20032;-88
2022/02/14 11:33:32;;;;;;;0.88;0.55;;;12.90;93.80;;;;;;4918657;29;20028;-89
2022/02/14 11:36:13;;;;;;;2.60;0.80;;;12.90;94.20;;;;;;4936036;29;20036;-90
2022/02/14 11:38:56;;;;;;;1.92;0.77;;;12.90;94.50;;;;;;4934279;29;20136;-89
2022/02/14 11:41:34;;;;;;;2.55;0.88;;;13.00;94.20;;;;;;4936743;29;20034;-89
2022/02/14 11:44:12;;;;;;;1.27;0.50;;;13.10;93.90;;;;;;4919287;29;20032;-91
2022/02/14 11:46:55;;;;;;;1.55;0.70;;;13.10;93.50;;;;;;4918550;29;20023;-88
2022/02/14 11:49:41;;;;;;;2.40;0.90;;;13.10;93.40;;;;;;4919106;29;20197;-84
2022/02/14 11:52:28;;;;;;;3.38;0.80;;;13.10;94.10;;;;;;4933748;29;20500;-90
2022/02/14 11:54:55;;;;;;;3.17;0.65;;;13.00;94.60;;;;;;4934595;29;20088;-89
2022/02/14 11:57:35;;;;;;;1.75;0.60;;;12.90;95.20;;;;;;4934688;29;20186;-91
2022/02/14 12:00:13;;;;;;;7.35;1.10;;;12.90;93.80;;;;;;4934578;29;20393;-87
2022/02/14 12:02:40;;;;;;;2.80;0.68;;;12.80;94.00;;;;;;4968059;28;20054;-87
2022/02/14 12:05:06;;;;;;;3.15;0.80;;;12.80;94.40;;;;;;4976926;28;20121;-83
2022/02/14 12:07:33;;;;;;;1.95;0.70;;;12.80;94.40;;;;;;4993818;28;20113;-84
2022/02/14 12:09:58;;;;;;;2.92;0.85;;;12.90;94.40;;;;;;4977308;28;20026;-82
2022/02/14 12:12:56;;;;;;;3.97;0.70;;;12.90;95.00;;;;;;4977133;28;20100;-83
2022/02/14 12:20:47;;;;;;;3.13;0.50;;;13.20;93.60;;;;;;4993367;28;20097;-81
2022/02/14 12:23:14;;;;;;;2.92;0.82;;;13.20;93.90;;;;;;4977210;28;20029;-83
2022/02/14 12:25:50;;;;;;;4.53;0.80;;;13.20;94.00;;;;;;4976507;28;20068;-84
2022/02/14 12:28:17;;;;;;;3.13;1.10;;;13.10;93.30;;;;;;4974603;28;20027;-82
2022/02/14 12:30:44;;;;;;;2.90;0.70;;;13.00;94.20;;;;;;4970084;28;20050;-84
2022/02/14 12:33:12;;;;;;;2.13;0.77;;;12.90;94.50;;;;;;4971613;28;20113;-82
2022/02/14 12:35:43;;;;;;;2.35;1.00;;;12.90;94.60;;;;;;4976827;28;20042;-83
2022/02/14 12:38:09;;;;;;;3.05;0.88;;;12.90;94.40;;;;;;4998937;28;20068;-82
2022/02/14 12:40:52;;;;;;;1.65;0.77;;;12.90;94.60;;;;;;4978170;28;20035;-83
2022/02/14 12:43:39;;;;;;;1.95;0.93;;;12.90;94.60;;;;;;4976673;28;20029;-82
2022/02/14 12:46:06;;;;;;;2.30;0.70;;;12.90;94.60;;;;;;4976444;28;20030;-82
2022/02/14 12:48:39;;;;;;;3.45;0.70;;;13.10;94.50;;;;;;4993068;28;20101;-85
2022/02/14 12:51:07;;;;;;;2.47;0.90;;;13.30;94.10;;;;;;4994551;28;20042;-85
2022/02/14 12:53:38;;;;;;;4.88;0.82;;;13.80;93.50;;;;;;4975744;28;20026;-85
2022/02/14 12:56:21;;;;;;;4.28;0.90;;;14.30;91.50;;;;;;4993857;28;20033;-85
2022/02/14 12:58:50;;;;;;;6.28;1.10;;;14.40;90.60;;;;;;4968657;28;20046;-86
2022/02/14 13:01:17;;;;;;;1.48;0.80;;;14.20;91.50;;;;;;4968098;28;20026;-83
2022/02/14 13:03:58;;;;;;;1.52;0.80;;;14.10;92.20;;;;;;4978018;28;20054;-84
2022/02/14 13:06:41;;;;;;;3.17;0.63;;;13.90;91.90;;;;;;4982253;28;20030;-87
2022/02/14 13:09:30;;;;;;;5.22;1.60;;;13.80;92.00;;;;;;4990022;28;20467;-82